Time;durP1;ratioP1;P1;durP2;ratioP2;P2;SDS_P1;SDS_P2;PMS_P1;PMS_P2;Temp;Humidity;BMP_temperature;BMP_pressure;BME280_temperature;BME280_humidity;BME280_pressure;Samples;Min_cycle;Max_cycle;Signal;HPM_P1;HPM_P2
2022/07/20 00:00:08;;;;;;;13.32;5.70;;;;;;;;;;4982898;28;20081;-78
2022/07/20 00:02:36;;;;;;;8.93;5.55;;;;;;;;;;4994293;28;21565;-78
2022/07/20 00:05:04;;;;;;;12.80;5.65;;;;;;;;;;4986145;28;20061;-77
2022/07/20 00:07:31;;;;;;;9.25;5.38;;;;;;;;;;4978090;28;20057;-79
2022/07/20 00:12:45;;;;;;;10.45;6.00;;;;;;;;;;4975511;28;20082;-78
2022/07/20 00:15:12;;;;;;;15.00;5.63;;;;;;;;;;4989511;28;20142;-78
2022/07/20 00:17:39;;;;;;;11.05;5.43;;;;;;;;;;4974441;28;20145;-78
2022/07/20 00:20:07;;;;;;;11.40;5.80;;;;;;;;;;4989428;28;20126;-78
2022/07/20 00:22:35;;;;;;;12.10;5.32;;;;;;;;;;4974984;28;20086;-78
2022/07/20 00:25:02;;;;;;;11.15;5.20;;;;;;;;;;4974567;28;20124;-78
2022/07/20 00:27:30;;;;;;;10.48;5.93;;;;;;;;;;4974611;28;20082;-78
2022/07/20 00:29:57;;;;;;;9.70;5.47;;;;;;;;;;4989429;28;20101;-78
2022/07/20 00:32:24;;;;;;;15.73;6.00;;;;;;;;;;4974160;28;20151;-78
2022/07/20 00:34:51;;;;;;;10.50;5.45;;;;;;;;;;4970722;28;20121;-79
2022/07/20 00:37:19;;;;;;;10.63;5.57;;;;;;;;;;4973730;28;20579;-78
2022/07/20 00:39:48;;;;;;;10.80;5.85;;;;;;;;;;4968831;28;20077;-78
2022/07/20 00:42:15;;;;;;;11.35;6.28;;;;;;;;;;4973388;28;20113;-78
2022/07/20 00:44:42;;;;;;;10.68;5.40;;;;;;;;;;4988597;28;20117;-78
2022/07/20 00:47:10;;;;;;;13.00;6.53;;;;;;;;;;4974857;28;20097;-78
2022/07/20 00:49:37;;;;;;;12.77;5.82;;;;;;;;;;5003666;28;20086;-78
2022/07/20 00:52:05;;;;;;;10.93;5.68;;;;;;;;;;4972618;28;20133;-78
2022/07/20 00:54:32;;;;;;;13.02;5.55;;;;;;;;;;4985642;28;20129;-78
2022/07/20 00:57:00;;;;;;;9.50;5.30;;;;;;;;;;4976368;28;20078;-79
2022/07/20 00:59:28;;;;;;;11.48;6.05;;;;;;;;;;4969110;28;20784;-78
2022/07/20 01:01:55;;;;;;;14.23;5.82;;;;;;;;;;4966474;28;20050;-78
2022/07/20 01:04:23;;;;;;;11.07;5.93;;;;;;;;;;4975430;28;20050;-77
2022/07/20 01:06:51;;;;;;;11.95;5.45;;;;;;;;;;4968041;28;20107;-77
2022/07/20 01:09:18;;;;;;;11.13;5.88;;;;;;;;;;4977870;28;20091;-78
2022/07/20 01:11:45;;;;;;;9.13;5.63;;;;;;;;;;4967292;28;20130;-79
2022/07/20 01:14:13;;;;;;;11.60;5.95;;;;;;;;;;4966028;28;20404;-78
2022/07/20 01:16:40;;;;;;;12.45;5.53;;;;;;;;;;4981396;28;20061;-78
2022/07/20 01:19:34;;;;;;;10.18;5.68;;;;;;;;;;4971223;28;20058;-79
2022/07/20 01:22:01;;;;;;;11.18;5.72;;;;;;;;;;4977820;28;20051;-79
2022/07/20 01:24:29;;;;;;;12.30;5.85;;;;;;;;;;4992571;28;20101;-78
2022/07/20 01:26:56;;;;;;;11.70;6.13;;;;;;;;;;4973624;28;20077;-79
2022/07/20 01:29:23;;;;;;;11.32;5.90;;;;;;;;;;4988465;28;20046;-79
2022/07/20 01:31:51;;;;;;;10.20;6.10;;;;;;;;;;4964105;28;20146;-75
2022/07/20 01:34:19;;;;;;;11.20;6.10;;;;;;;;;;4945940;28;20051;-74
2022/07/20 01:36:47;;;;;;;10.18;6.30;;;;;;;;;;4966631;28;20097;-74
2022/07/20 01:39:14;;;;;;;9.02;5.70;;;;;;;;;;4977002;28;20145;-74
2022/07/20 01:41:42;;;;;;;14.35;6.05;;;;;;;;;;4947567;28;20193;-74
2022/07/20 01:44:09;;;;;;;12.73;5.72;;;;;;;;;;4964296;28;20166;-74
2022/07/20 01:46:36;;;;;;;17.80;6.00;;;;;;;;;;4964597;28;20265;-74
2022/07/20 01:49:04;;;;;;;10.90;5.85;;;;;;;;;;4945859;28;20126;-74
2022/07/20 01:51:31;;;;;;;12.65;5.90;;;;;;;;;;4951016;28;20074;-74
2022/07/20 01:53:59;;;;;;;12.30;5.75;;;;;;;;;;4950210;28;20043;-74
2022/07/20 01:56:26;;;;;;;17.08;6.47;;;;;;;;;;4959504;28;20053;-74
2022/07/20 01:58:54;;;;;;;10.73;5.95;;;;;;;;;;4947589;28;20173;-74
2022/07/20 02:01:21;;;;;;;10.93;5.65;;;;;;;;;;4963223;28;20061;-74
2022/07/20 02:03:49;;;;;;;13.23;6.30;;;;;;;;;;4956101;28;20885;-74
2022/07/20 02:06:16;;;;;;;10.50;6.47;;;;;;;;;;4963836;28;20214;-72
2022/07/20 02:08:44;;;;;;;9.32;5.90;;;;;;;;;;4968328;28;20082;-72
2022/07/20 02:11:11;;;;;;;12.23;6.28;;;;;;;;;;4951493;28;20078;-72
2022/07/20 02:13:38;;;;;;;14.05;6.10;;;;;;;;;;4947535;28;20055;-72
2022/07/20 02:16:15;;;;;;;9.70;6.00;;;;;;;;;;4948284;28;20081;-72
2022/07/20 02:18:50;;;;;;;12.25;6.55;;;;;;;;;;4949721;28;20078;-74
2022/07/20 02:21:19;;;;;;;10.88;6.28;;;;;;;;;;4950228;28;20654;-74
2022/07/20 02:23:46;;;;;;;13.20;6.70;;;;;;;;;;4948828;28;20925;-74
2022/07/20 02:26:14;;;;;;;14.85;6.63;;;;;;;;;;4946757;28;20047;-74
2022/07/20 02:28:41;;;;;;;13.95;6.05;;;;;;;;;;4960966;28;20950;-73
2022/07/20 02:31:09;;;;;;;11.00;5.90;;;;;;;;;;4949354;28;20057;-73
2022/07/20 02:33:37;;;;;;;10.60;5.95;;;;;;;;;;4973455;28;20051;-73
2022/07/20 02:36:04;;;;;;;14.07;6.43;;;;;;;;;;4950645;28;20135;-73
2022/07/20 02:38:31;;;;;;;11.70;6.53;;;;;;;;;;4947948;28;20768;-73
2022/07/20 02:40:59;;;;;;;13.05;6.57;;;;;;;;;;4962557;28;20046;-73
2022/07/20 02:43:26;;;;;;;12.00;6.53;;;;;;;;;;4955279;28;20463;-73
2022/07/20 02:45:54;;;;;;;13.07;6.55;;;;;;;;;;4951490;28;20249;-73
2022/07/20 02:48:21;;;;;;;16.20;6.40;;;;;;;;;;4947957;28;20051;-73
2022/07/20 02:50:48;;;;;;;12.10;6.65;;;;;;;;;;4945881;28;20116;-73
2022/07/20 02:53:16;;;;;;;11.02;5.97;;;;;;;;;;4952314;28;20046;-73
2022/07/20 02:55:44;;;;;;;14.00;6.90;;;;;;;;;;4955293;28;20082;-73
2022/07/20 02:58:11;;;;;;;11.15;6.50;;;;;;;;;;4948858;28;20145;-73
2022/07/20 03:00:40;;;;;;;12.20;6.85;;;;;;;;;;4960644;28;20138;-73
2022/07/20 03:03:07;;;;;;;11.75;7.22;;;;;;;;;;4961499;28;20074;-73
2022/07/20 03:05:35;;;;;;;16.13;7.28;;;;;;;;;;4964044;28;20046;-73
2022/07/20 03:08:04;;;;;;;12.95;7.28;;;;;;;;;;4965938;28;20050;-73
2022/07/20 03:10:31;;;;;;;12.93;6.95;;;;;;;;;;4964945;28;20138;-73
2022/07/20 03:12:59;;;;;;;13.52;7.07;;;;;;;;;;4966126;28;20133;-74
2022/07/20 03:15:26;;;;;;;21.50;7.93;;;;;;;;;;4964801;28;20082;-74
2022/07/20 03:17:54;;;;;;;12.20;6.97;;;;;;;;;;4980331;28;20053;-73
2022/07/20 03:20:23;;;;;;;14.75;7.30;;;;;;;;;;4964576;28;20059;-73
2022/07/20 03:22:51;;;;;;;16.25;7.13;;;;;;;;;;4980567;28;20137;-73
2022/07/20 03:25:21;;;;;;;13.77;7.28;;;;;;;;;;4964741;28;20142;-74
2022/07/20 03:27:48;;;;;;;12.95;7.30;;;;;;;;;;4979518;28;20137;-74
2022/07/20 03:30:16;;;;;;;11.73;7.00;;;;;;;;;;4965447;28;20082;-74
2022/07/20 03:32:43;;;;;;;15.80;7.40;;;;;;;;;;4978515;28;20407;-73
2022/07/20 03:35:11;;;;;;;13.95;7.72;;;;;;;;;;4957261;28;20146;-73
2022/07/20 03:37:38;;;;;;;14.68;7.30;;;;;;;;;;4952938;28;21246;-74
2022/07/20 03:40:06;;;;;;;15.40;7.10;;;;;;;;;;4952372;28;20050;-74
2022/07/20 03:42:34;;;;;;;13.80;6.72;;;;;;;;;;4967815;28;20082;-73
2022/07/20 03:45:01;;;;;;;16.85;7.53;;;;;;;;;;4971694;28;20819;-74
2022/07/20 03:47:28;;;;;;;16.40;7.25;;;;;;;;;;4970730;28;20562;-74
2022/07/20 03:49:56;;;;;;;15.07;7.35;;;;;;;;;;4953972;28;20047;-73
2022/07/20 03:52:23;;;;;;;16.15;6.90;;;;;;;;;;4963068;28;20158;-74
2022/07/20 03:54:50;;;;;;;13.00;7.22;;;;;;;;;;4958200;28;20150;-74
2022/07/20 03:57:18;;;;;;;12.57;6.95;;;;;;;;;;4949781;28;20102;-74
2022/07/20 03:59:45;;;;;;;14.93;6.90;;;;;;;;;;4948233;28;20750;-73
2022/07/20 04:02:16;;;;;;;16.05;7.53;;;;;;;;;;4968273;28;20058;-75
2022/07/20 04:04:46;;;;;;;13.20;7.07;;;;;;;;;;4966500;28;20912;-73
2022/07/20 04:07:16;;;;;;;17.15;8.38;;;;;;;;;;4970140;28;20051;-73
2022/07/20 04:09:44;;;;;;;18.33;7.45;;;;;;;;;;4967280;28;20065;-73
2022/07/20 04:12:14;;;;;;;13.68;7.43;;;;;;;;;;4965691;28;20465;-73
2022/07/20 04:14:42;;;;;;;13.20;6.72;;;;;;;;;;4970348;28;20066;-73
2022/07/20 04:17:09;;;;;;;13.38;7.38;;;;;;;;;;4950606;28;20046;-73
2022/07/20 04:19:36;;;;;;;12.57;7.43;;;;;;;;;;4947903;28;20158;-73
2022/07/20 04:22:04;;;;;;;11.38;7.00;;;;;;;;;;4954285;28;20124;-72
2022/07/20 04:24:31;;;;;;;15.10;6.72;;;;;;;;;;4958601;28;20146;-73
2022/07/20 04:26:58;;;;;;;17.85;7.55;;;;;;;;;;4956555;28;20109;-74
2022/07/20 04:29:26;;;;;;;18.48;7.80;;;;;;;;;;4979253;28;20132;-73
2022/07/20 04:31:53;;;;;;;21.70;8.20;;;;;;;;;;4975940;28;20089;-73
2022/07/20 04:34:21;;;;;;;13.80;7.85;;;;;;;;;;4963175;28;20209;-73
2022/07/20 04:36:48;;;;;;;20.17;8.02;;;;;;;;;;4965359;28;20049;-73
2022/07/20 04:39:16;;;;;;;18.13;7.30;;;;;;;;;;4960618;28;20144;-74
2022/07/20 04:41:43;;;;;;;15.50;7.35;;;;;;;;;;4974347;28;20063;-73
2022/07/20 04:44:10;;;;;;;17.33;8.20;;;;;;;;;;4963825;28;20075;-73
2022/07/20 04:46:38;;;;;;;15.18;7.40;;;;;;;;;;4984004;28;20125;-73
2022/07/20 04:49:07;;;;;;;15.25;7.95;;;;;;;;;;4972326;28;20055;-72
2022/07/20 04:51:35;;;;;;;14.20;8.05;;;;;;;;;;4947357;28;20174;-72
2022/07/20 04:54:02;;;;;;;17.90;7.35;;;;;;;;;;4961359;28;20050;-73
2022/07/20 04:56:29;;;;;;;22.00;7.78;;;;;;;;;;4962501;28;20086;-73
2022/07/20 04:58:57;;;;;;;23.35;7.57;;;;;;;;;;4953062;28;20185;-73
2022/07/20 05:01:24;;;;;;;16.75;7.75;;;;;;;;;;4967286;28;20145;-73
2022/07/20 05:03:52;;;;;;;14.20;7.65;;;;;;;;;;4963776;28;20138;-73
2022/07/20 05:06:19;;;;;;;19.45;8.32;;;;;;;;;;4982877;28;20170;-72
2022/07/20 05:08:47;;;;;;;18.75;7.10;;;;;;;;;;4968626;28;20151;-72
2022/07/20 05:11:15;;;;;;;15.93;8.27;;;;;;;;;;4966075;28;20070;-73
2022/07/20 05:13:44;;;;;;;18.00;7.00;;;;;;;;;;4968370;28;20499;-73
2022/07/20 05:16:12;;;;;;;12.55;7.72;;;;;;;;;;4984230;28;20078;-75
2022/07/20 05:18:39;;;;;;;15.35;7.43;;;;;;;;;;4984731;28;20111;-75
2022/07/20 05:21:07;;;;;;;13.90;8.02;;;;;;;;;;4964570;28;20137;-73
2022/07/20 05:23:34;;;;;;;14.52;7.93;;;;;;;;;;4964373;28;20118;-73
2022/07/20 05:26:02;;;;;;;19.30;7.82;;;;;;;;;;4968554;28;20082;-73
2022/07/20 05:28:29;;;;;;;15.18;7.38;;;;;;;;;;4980756;28;20054;-74
2022/07/20 05:30:57;;;;;;;17.52;7.72;;;;;;;;;;4983523;28;20086;-75
2022/07/20 05:33:24;;;;;;;16.13;7.80;;;;;;;;;;4981417;28;20054;-74
2022/07/20 05:35:52;;;;;;;14.95;7.82;;;;;;;;;;4966487;28;20432;-74
2022/07/20 05:38:20;;;;;;;18.63;8.43;;;;;;;;;;4967768;28;20093;-74
2022/07/20 05:40:47;;;;;;;14.40;8.05;;;;;;;;;;4967721;28;20050;-74
2022/07/20 05:43:15;;;;;;;19.17;7.63;;;;;;;;;;4982905;28;20133;-74
2022/07/20 05:45:42;;;;;;;15.50;8.18;;;;;;;;;;4983606;28;20137;-74
2022/07/20 05:48:14;;;;;;;13.55;7.47;;;;;;;;;;4969244;28;20117;-74
2022/07/20 05:50:41;;;;;;;11.80;6.65;;;;;;;;;;4981988;28;20470;-74
2022/07/20 05:53:08;;;;;;;17.50;7.35;;;;;;;;;;4982034;28;20166;-73
2022/07/20 05:55:36;;;;;;;14.38;7.07;;;;;;;;;;4954134;28;20086;-74
2022/07/20 05:58:04;;;;;;;11.50;7.47;;;;;;;;;;4968294;28;20086;-73
2022/07/20 06:00:32;;;;;;;14.55;8.00;;;;;;;;;;4967717;28;20396;-73
2022/07/20 06:03:00;;;;;;;14.07;7.32;;;;;;;;;;4966623;28;20086;-74
2022/07/20 06:05:27;;;;;;;14.32;7.60;;;;;;;;;;4967373;28;20806;-74
2022/07/20 06:07:55;;;;;;;12.23;7.28;;;;;;;;;;4969226;28;20127;-74
2022/07/20 06:10:23;;;;;;;12.50;7.30;;;;;;;;;;4983341;28;20086;-74
2022/07/20 06:12:50;;;;;;;24.33;7.70;;;;;;;;;;4963942;28;20165;-74
2022/07/20 06:15:18;;;;;;;14.15;7.28;;;;;;;;;;4982656;28;20530;-74
2022/07/20 06:17:46;;;;;;;14.43;7.32;;;;;;;;;;4983310;28;20047;-74
2022/07/20 06:20:14;;;;;;;14.05;7.35;;;;;;;;;;4982947;28;20641;-74
2022/07/20 06:22:42;;;;;;;18.33;8.20;;;;;;;;;;4967115;28;20141;-74
2022/07/20 06:25:11;;;;;;;9.85;6.82;;;;;;;;;;4983162;28;20142;-74
2022/07/20 06:27:38;;;;;;;12.60;7.20;;;;;;;;;;4981313;28;20057;-74
2022/07/20 06:30:06;;;;;;;12.30;6.85;;;;;;;;;;4983073;28;20919;-74
2022/07/20 06:32:34;;;;;;;16.17;8.05;;;;;;;;;;4967439;28;20567;-74
2022/07/20 06:35:01;;;;;;;23.13;7.72;;;;;;;;;;4967537;28;20154;-74
2022/07/20 06:37:29;;;;;;;13.35;6.75;;;;;;;;;;4967683;28;20129;-74
2022/07/20 06:39:56;;;;;;;22.48;7.53;;;;;;;;;;4966617;28;20058;-74
2022/07/20 06:42:23;;;;;;;12.98;7.28;;;;;;;;;;4967209;28;20183;-74
2022/07/20 06:44:51;;;;;;;15.27;7.60;;;;;;;;;;4967803;28;20058;-74
2022/07/20 06:47:18;;;;;;;18.08;7.53;;;;;;;;;;4966490;28;20113;-74
2022/07/20 06:49:45;;;;;;;13.93;7.85;;;;;;;;;;4979693;28;20225;-74
2022/07/20 06:52:13;;;;;;;14.30;7.50;;;;;;;;;;4967610;28;20090;-74
2022/07/20 06:54:40;;;;;;;18.90;7.43;;;;;;;;;;4977408;28;20055;-75
2022/07/20 06:57:08;;;;;;;13.95;7.28;;;;;;;;;;4972205;28;20055;-74
2022/07/20 06:59:37;;;;;;;11.98;7.78;;;;;;;;;;4966021;28;20098;-74
2022/07/20 07:02:05;;;;;;;14.65;7.13;;;;;;;;;;4981904;28;20739;-74
2022/07/20 07:04:32;;;;;;;26.50;7.93;;;;;;;;;;4966686;28;20055;-74
2022/07/20 07:07:02;;;;;;;24.58;10.68;;;;;;;;;;4966930;28;20446;-74
2022/07/20 07:09:29;;;;;;;17.08;7.88;;;;;;;;;;4978939;28;20043;-74
2022/07/20 07:11:57;;;;;;;16.10;8.32;;;;;;;;;;4971179;28;20444;-74
2022/07/20 07:14:25;;;;;;;13.82;6.72;;;;;;;;;;4963234;28;20141;-74
2022/07/20 07:16:53;;;;;;;13.30;7.53;;;;;;;;;;4967167;28;20053;-74
2022/07/20 07:19:21;;;;;;;11.88;7.22;;;;;;;;;;4966809;28;20138;-74
2022/07/20 07:21:48;;;;;;;18.92;7.82;;;;;;;;;;4958396;28;20051;-74
2022/07/20 07:24:15;;;;;;;12.02;7.32;;;;;;;;;;4965478;28;20130;-74
2022/07/20 07:26:43;;;;;;;12.05;7.40;;;;;;;;;;4981022;28;20137;-74
2022/07/20 07:29:10;;;;;;;13.38;6.47;;;;;;;;;;4964289;28;20193;-75
2022/07/20 07:31:38;;;;;;;13.98;7.07;;;;;;;;;;4979158;28;20078;-74
2022/07/20 07:34:05;;;;;;;12.13;6.93;;;;;;;;;;4969800;28;20061;-74
2022/07/20 07:36:32;;;;;;;20.70;8.48;;;;;;;;;;4965145;28;20047;-75
2022/07/20 07:39:00;;;;;;;16.40;9.02;;;;;;;;;;4977364;28;20082;-75
2022/07/20 07:41:27;;;;;;;16.77;8.05;;;;;;;;;;4961504;28;20611;-75
2022/07/20 07:43:55;;;;;;;11.75;7.10;;;;;;;;;;4967751;28;20495;-75
2022/07/20 07:46:22;;;;;;;11.02;6.97;;;;;;;;;;4990834;28;20130;-76
2022/07/20 07:48:50;;;;;;;12.73;6.43;;;;;;;;;;4964963;28;20057;-75
2022/07/20 07:51:18;;;;;;;16.05;6.70;;;;;;;;;;4977965;28;20055;-75
2022/07/20 07:53:45;;;;;;;12.48;7.00;;;;;;;;;;4979584;28;20054;-75
2022/07/20 07:56:13;;;;;;;14.43;7.45;;;;;;;;;;4965383;28;20071;-75
2022/07/20 07:58:40;;;;;;;19.80;6.55;;;;;;;;;;4965541;28;20082;-76
2022/07/20 08:01:07;;;;;;;21.00;7.15;;;;;;;;;;4964444;28;20133;-75
2022/07/20 08:03:35;;;;;;;14.30;7.05;;;;;;;;;;4964274;28;20055;-75
2022/07/20 08:06:04;;;;;;;15.57;7.05;;;;;;;;;;4980120;28;20058;-75
2022/07/20 08:08:31;;;;;;;14.93;7.28;;;;;;;;;;4965132;28;20142;-75
2022/07/20 08:10:59;;;;;;;15.75;7.82;;;;;;;;;;4965136;28;20046;-75
2022/07/20 08:13:26;;;;;;;13.63;6.60;;;;;;;;;;4979990;28;20129;-75
2022/07/20 08:15:54;;;;;;;16.90;7.18;;;;;;;;;;4979665;28;20081;-75
2022/07/20 08:18:22;;;;;;;15.63;7.10;;;;;;;;;;4964503;28;20771;-75
2022/07/20 08:20:50;;;;;;;15.30;7.15;;;;;;;;;;4965124;28;20578;-75
2022/07/20 08:23:17;;;;;;;9.75;6.15;;;;;;;;;;4965006;28;20079;-75
2022/07/20 08:25:44;;;;;;;14.40;7.53;;;;;;;;;;4980390;28;20762;-75
2022/07/20 08:28:13;;;;;;;16.05;6.28;;;;;;;;;;4969055;28;20133;-75
2022/07/20 08:30:42;;;;;;;16.40;6.18;;;;;;;;;;4969185;28;20059;-75
2022/07/20 08:33:20;;;;;;;10.18;6.45;;;;;;;;;;4968647;28;20047;-75
2022/07/20 08:35:48;;;;;;;13.40;6.18;;;;;;;;;;4967057;28;20462;-75
2022/07/20 08:38:15;;;;;;;12.65;6.53;;;;;;;;;;4968663;28;20498;-75
2022/07/20 08:40:42;;;;;;;10.15;6.05;;;;;;;;;;4967373;28;20094;-75
2022/07/20 08:43:10;;;;;;;19.20;6.43;;;;;;;;;;4967967;28;20444;-75
2022/07/20 08:45:38;;;;;;;10.43;6.10;;;;;;;;;;4969593;28;20085;-75
2022/07/20 08:48:11;;;;;;;17.17;7.18;;;;;;;;;;4984378;28;20137;-75
2022/07/20 08:50:38;;;;;;;9.15;5.60;;;;;;;;;;4983606;28;20117;-75
2022/07/20 08:53:06;;;;;;;12.30;4.93;;;;;;;;;;4969091;28;20129;-75
2022/07/20 08:55:33;;;;;;;19.08;6.57;;;;;;;;;;4969356;28;20408;-75
2022/07/20 08:58:01;;;;;;;12.40;5.97;;;;;;;;;;4968056;28;20075;-75
2022/07/20 09:00:28;;;;;;;9.52;5.78;;;;;;;;;;4968611;28;20145;-75
2022/07/20 09:03:01;;;;;;;7.43;4.28;;;;;;;;;;4967547;28;20062;-75
2022/07/20 09:05:30;;;;;;;9.52;5.70;;;;;;;;;;4983129;28;20059;-75
2022/07/20 09:07:58;;;;;;;13.43;5.30;;;;;;;;;;4982538;28;20105;-75
2022/07/20 09:10:27;;;;;;;13.27;5.30;;;;;;;;;;4983508;28;20136;-75
2022/07/20 09:12:57;;;;;;;16.58;6.22;;;;;;;;;;4969486;28;20096;-75
2022/07/20 09:15:42;;;;;;;14.93;5.18;;;;;;;;;;4980212;28;20129;-75
2022/07/20 09:18:11;;;;;;;14.88;5.32;;;;;;;;;;4982029;28;20051;-75
2022/07/20 09:20:40;;;;;;;17.77;5.85;;;;;;;;;;4981416;28;20150;-75
2022/07/20 09:23:16;;;;;;;10.07;5.10;;;;;;;;;;4974175;28;20065;-75
2022/07/20 09:25:54;;;;;;;11.55;4.50;;;;;;;;;;4982337;28;20632;-75
2022/07/20 09:28:22;;;;;;;9.95;4.68;;;;;;;;;;4966465;28;20146;-76
2022/07/20 09:30:54;;;;;;;15.18;5.55;;;;;;;;;;4977465;28;20051;-75
2022/07/20 09:33:31;;;;;;;12.80;4.68;;;;;;;;;;4966163;28;20062;-75
2022/07/20 09:36:02;;;;;;;15.00;4.65;;;;;;;;;;4964034;28;20130;-75
2022/07/20 09:38:33;;;;;;;15.20;4.85;;;;;;;;;;4965854;28;20054;-75
2022/07/20 09:41:01;;;;;;;11.73;4.97;;;;;;;;;;4967803;28;20047;-75
2022/07/20 09:43:31;;;;;;;12.82;4.70;;;;;;;;;;4964714;28;20070;-75
2022/07/20 09:46:10;;;;;;;6.75;4.63;;;;;;;;;;4966395;28;20133;-75
2022/07/20 09:48:42;;;;;;;15.95;5.32;;;;;;;;;;4967542;28;20051;-75
2022/07/20 09:51:19;;;;;;;16.23;4.95;;;;;;;;;;4966476;28;20133;-76
2022/07/20 09:53:48;;;;;;;11.07;4.85;;;;;;;;;;4968059;28;20137;-75
2022/07/20 09:56:17;;;;;;;37.90;5.07;;;;;;;;;;4967625;28;20187;-75
2022/07/20 09:58:49;;;;;;;21.33;4.88;;;;;;;;;;4965454;28;20138;-75
2022/07/20 10:01:19;;;;;;;11.13;4.38;;;;;;;;;;4966654;28;20431;-75
2022/07/20 10:03:47;;;;;;;11.82;4.30;;;;;;;;;;4981273;28;20050;-75
2022/07/20 10:06:16;;;;;;;10.77;4.43;;;;;;;;;;4967085;28;20466;-75
2022/07/20 10:08:44;;;;;;;15.07;4.40;;;;;;;;;;4981093;28;20566;-75
2022/07/20 10:11:11;;;;;;;12.25;4.72;;;;;;;;;;4968059;28;20133;-75
2022/07/20 10:13:40;;;;;;;11.50;4.18;;;;;;;;;;4967625;28;20153;-75
2022/07/20 10:16:26;;;;;;;17.52;3.92;;;;;;;;;;4982343;28;20674;-75
2022/07/20 10:18:56;;;;;;;8.85;4.10;;;;;;;;;;4967476;28;20053;-75
2022/07/20 10:21:42;;;;;;;11.90;4.65;;;;;;;;;;4966736;28;20046;-75
2022/07/20 10:24:27;;;;;;;8.32;4.30;;;;;;;;;;4967237;28;20134;-75
2022/07/20 10:26:56;;;;;;;7.97;4.43;;;;;;;;;;4978535;28;20050;-75
2022/07/20 10:29:26;;;;;;;10.48;4.55;;;;;;;;;;4964668;28;20070;-75
2022/07/20 10:31:54;;;;;;;7.00;4.15;;;;;;;;;;4981965;28;20053;-75
2022/07/20 10:34:36;;;;;;;10.55;4.53;;;;;;;;;;4976676;28;20102;-75
2022/07/20 10:37:23;;;;;;;8.00;4.88;;;;;;;;;;4981001;28;20578;-76
2022/07/20 10:40:09;;;;;;;10.02;4.63;;;;;;;;;;4965579;28;20042;-76
2022/07/20 10:42:38;;;;;;;10.10;4.10;;;;;;;;;;4980258;28;20075;-75
2022/07/20 10:45:27;;;;;;;8.30;4.28;;;;;;;;;;4967128;28;20121;-75
2022/07/20 10:47:55;;;;;;;6.43;4.30;;;;;;;;;;4966607;28;20054;-75
2022/07/20 10:50:29;;;;;;;22.52;4.55;;;;;;;;;;4965977;28;20136;-76
2022/07/20 10:52:57;;;;;;;13.43;4.17;;;;;;;;;;4965241;28;20050;-75
2022/07/20 10:55:34;;;;;;;11.77;5.22;;;;;;;;;;4966016;28;20133;-75
2022/07/20 10:58:06;;;;;;;7.85;4.72;;;;;;;;;;4974709;28;20199;-75
2022/07/20 11:00:37;;;;;;;12.00;4.70;;;;;;;;;;4979826;28;20050;-76
2022/07/20 11:03:11;;;;;;;7.82;4.85;;;;;;;;;;4966133;28;20054;-76
2022/07/20 11:05:39;;;;;;;8.47;4.93;;;;;;;;;;4981905;28;20054;-75
2022/07/20 11:08:08;;;;;;;10.93;4.68;;;;;;;;;;4977929;28;20319;-76
2022/07/20 11:10:36;;;;;;;18.35;6.38;;;;;;;;;;4964722;28;20051;-76
2022/07/20 11:13:05;;;;;;;10.73;4.30;;;;;;;;;;4979961;28;20133;-76
2022/07/20 11:15:42;;;;;;;9.88;4.97;;;;;;;;;;4967337;28;20432;-75
2022/07/20 11:18:10;;;;;;;8.60;4.65;;;;;;;;;;4980820;28;20077;-75
2022/07/20 11:20:45;;;;;;;7.88;5.05;;;;;;;;;;4966524;28;20126;-75
2022/07/20 11:23:13;;;;;;;7.45;5.45;;;;;;;;;;4981825;28;20074;-75
2022/07/20 11:25:48;;;;;;;11.23;5.78;;;;;;;;;;4966394;28;20142;-75
2022/07/20 11:28:20;;;;;;;9.38;4.65;;;;;;;;;;4980726;28;20161;-75
2022/07/20 11:30:48;;;;;;;10.20;5.20;;;;;;;;;;4980644;28;20126;-75
2022/07/20 11:33:26;;;;;;;12.75;5.32;;;;;;;;;;4980480;28;20054;-75
2022/07/20 11:35:55;;;;;;;8.48;5.43;;;;;;;;;;4961506;28;20134;-75
2022/07/20 11:38:23;;;;;;;8.88;5.00;;;;;;;;;;4977517;28;20135;-75
2022/07/20 11:41:01;;;;;;;15.23;6.38;;;;;;;;;;4964229;28;20136;-75
2022/07/20 11:43:28;;;;;;;16.85;5.68;;;;;;;;;;4978855;28;20078;-75
2022/07/20 11:46:15;;;;;;;11.77;6.15;;;;;;;;;;4965605;28;20074;-75
2022/07/20 11:48:43;;;;;;;8.35;5.05;;;;;;;;;;4965915;28;20050;-75
2022/07/20 11:51:32;;;;;;;15.13;5.80;;;;;;;;;;4974732;28;20574;-75
2022/07/20 11:54:00;;;;;;;10.75;5.15;;;;;;;;;;4970281;28;20055;-75
2022/07/20 11:56:29;;;;;;;12.52;4.97;;;;;;;;;;4966159;28;20134;-76
2022/07/20 11:58:57;;;;;;;11.98;5.57;;;;;;;;;;4966892;28;20127;-75
2022/07/20 12:01:29;;;;;;;9.23;5.05;;;;;;;;;;4979126;28;20133;-75
2022/07/20 12:03:58;;;;;;;10.23;5.03;;;;;;;;;;4981584;28;20147;-76
2022/07/20 12:06:27;;;;;;;14.30;4.82;;;;;;;;;;4964655;28;20606;-75
2022/07/20 12:09:03;;;;;;;14.30;5.03;;;;;;;;;;4966016;28;20169;-75
2022/07/20 12:11:31;;;;;;;10.13;5.10;;;;;;;;;;4965016;28;20162;-75
2022/07/20 12:13:58;;;;;;;11.75;5.45;;;;;;;;;;4964683;28;20051;-75
2022/07/20 12:16:36;;;;;;;12.55;4.80;;;;;;;;;;4964647;28;20159;-75
2022/07/20 12:19:04;;;;;;;12.65;4.80;;;;;;;;;;4963611;28;20051;-75
2022/07/20 12:21:41;;;;;;;12.85;5.65;;;;;;;;;;4979885;28;20055;-75
2022/07/20 12:24:08;;;;;;;12.10;4.70;;;;;;;;;;4965460;28;20082;-76
2022/07/20 12:26:38;;;;;;;11.27;4.35;;;;;;;;;;4965223;28;20129;-76
2022/07/20 12:29:17;;;;;;;11.00;4.70;;;;;;;;;;4966229;28;20183;-76
2022/07/20 12:31:45;;;;;;;9.02;5.15;;;;;;;;;;4979501;28;20082;-76
2022/07/20 12:34:14;;;;;;;5.68;4.35;;;;;;;;;;4978854;28;20064;-77
2022/07/20 12:36:51;;;;;;;6.03;4.00;;;;;;;;;;4964717;28;20062;-77
2022/07/20 12:39:36;;;;;;;8.43;4.13;;;;;;;;;;4966153;28;20051;-75
2022/07/20 12:42:11;;;;;;;10.13;4.13;;;;;;;;;;4965558;28;20133;-76
2022/07/20 12:45:01;;;;;;;13.70;4.50;;;;;;;;;;4962627;28;20051;-77
2022/07/20 12:47:29;;;;;;;7.07;4.32;;;;;;;;;;4976837;28;20113;-77
2022/07/20 12:50:16;;;;;;;10.23;4.43;;;;;;;;;;4959540;28;20050;-77
2022/07/20 12:52:44;;;;;;;9.73;4.05;;;;;;;;;;4979703;28;20137;-76
2022/07/20 12:55:11;;;;;;;10.55;3.88;;;;;;;;;;4964117;28;20134;-76
2022/07/20 12:57:38;;;;;;;12.23;4.28;;;;;;;;;;4965204;28;20093;-77
2022/07/20 13:00:06;;;;;;;14.15;3.85;;;;;;;;;;4966243;28;20079;-76
2022/07/20 13:02:34;;;;;;;5.35;3.67;;;;;;;;;;4966119;28;20074;-76
2022/07/20 13:05:01;;;;;;;6.90;3.65;;;;;;;;;;4966901;28;20861;-77
2022/07/20 13:07:28;;;;;;;15.80;4.25;;;;;;;;;;4981933;28;20491;-77
2022/07/20 13:09:56;;;;;;;6.03;3.72;;;;;;;;;;4967218;28;20145;-77
2022/07/20 13:12:25;;;;;;;14.63;4.63;;;;;;;;;;4967272;28;20050;-77
2022/07/20 13:14:52;;;;;;;7.78;3.38;;;;;;;;;;4984135;28;20723;-77
2022/07/20 13:17:40;;;;;;;5.97;3.45;;;;;;;;;;4968749;28;20081;-77
2022/07/20 13:20:07;;;;;;;5.20;3.58;;;;;;;;;;4985021;28;20129;-77
2022/07/20 13:22:34;;;;;;;16.08;4.78;;;;;;;;;;4983520;28;20154;-76
2022/07/20 13:25:02;;;;;;;14.82;4.25;;;;;;;;;;4968729;28;20134;-76
2022/07/20 13:27:29;;;;;;;7.78;3.22;;;;;;;;;;4967866;28;20466;-76
2022/07/20 13:29:57;;;;;;;6.57;3.70;;;;;;;;;;4984490;28;20130;-76
2022/07/20 13:32:24;;;;;;;12.77;3.92;;;;;;;;;;4982804;28;20469;-77
2022/07/20 13:34:51;;;;;;;7.28;3.80;;;;;;;;;;4968787;28;20145;-77
2022/07/20 13:37:19;;;;;;;6.20;3.20;;;;;;;;;;4969298;28;20082;-77
2022/07/20 13:39:46;;;;;;;6.68;3.40;;;;;;;;;;4968829;28;20160;-77
2022/07/20 13:42:14;;;;;;;9.25;3.88;;;;;;;;;;4984080;28;20061;-77
2022/07/20 13:44:41;;;;;;;9.57;3.63;;;;;;;;;;4969083;28;20055;-77
2022/07/20 13:47:09;;;;;;;6.45;3.33;;;;;;;;;;4967783;28;20058;-77
2022/07/20 13:49:36;;;;;;;8.63;3.90;;;;;;;;;;4966201;28;20058;-77
2022/07/20 13:52:04;;;;;;;7.50;3.85;;;;;;;;;;4984233;28;20134;-77
2022/07/20 13:54:51;;;;;;;12.35;4.15;;;;;;;;;;4980730;28;20450;-77
2022/07/20 13:57:19;;;;;;;11.60;3.95;;;;;;;;;;4969260;28;20074;-77
2022/07/20 13:59:46;;;;;;;8.43;4.03;;;;;;;;;;4968368;28;20129;-77
2022/07/20 14:02:13;;;;;;;12.18;5.15;;;;;;;;;;4967222;28;20095;-76
2022/07/20 14:04:41;;;;;;;7.68;4.13;;;;;;;;;;4968162;28;20784;-76
2022/07/20 14:07:09;;;;;;;9.93;3.85;;;;;;;;;;4983753;28;20116;-77
2022/07/20 14:09:37;;;;;;;10.95;4.40;;;;;;;;;;4969134;28;20051;-77
2022/07/20 14:12:05;;;;;;;7.57;3.78;;;;;;;;;;4969297;28;20133;-76
2022/07/20 14:14:32;;;;;;;7.03;3.70;;;;;;;;;;4968486;28;20097;-77
2022/07/20 14:16:59;;;;;;;10.07;3.90;;;;;;;;;;4983971;28;20137;-77
2022/07/20 14:19:36;;;;;;;9.18;3.90;;;;;;;;;;4970422;28;20051;-77
2022/07/20 14:22:03;;;;;;;10.15;3.97;;;;;;;;;;4981024;28;20126;-77
2022/07/20 14:24:30;;;;;;;9.50;3.58;;;;;;;;;;4999634;28;20047;-77
2022/07/20 14:26:58;;;;;;;5.93;3.90;;;;;;;;;;4999909;28;20136;-76
2022/07/20 14:29:25;;;;;;;7.07;3.55;;;;;;;;;;5000356;28;20157;-76
2022/07/20 14:31:53;;;;;;;7.07;3.83;;;;;;;;;;4968596;28;20138;-76
2022/07/20 14:34:27;;;;;;;5.43;3.80;;;;;;;;;;4983889;28;20062;-76
2022/07/20 14:36:54;;;;;;;6.53;3.83;;;;;;;;;;4963251;28;20050;-76
2022/07/20 14:39:22;;;;;;;19.88;3.90;;;;;;;;;;4968942;28;20062;-76
2022/07/20 14:41:49;;;;;;;11.15;3.63;;;;;;;;;;4967466;28;20616;-76
2022/07/20 14:44:16;;;;;;;8.98;3.67;;;;;;;;;;4983857;28;20712;-76
2022/07/20 14:46:44;;;;;;;7.10;3.40;;;;;;;;;;4968250;28;20105;-76